Florence, KY

5:16 PM EST on January 27, 2015 (GMT -0500)
KYTC_RWIS I-75 @ MP 178 | Change Station
CLOSE
Current Station
Personal Weather Station
Location: Florence, KY
Elevation: 911 ft
Nearby Weather Stations

Elev 911 ft 38.96 °N, 84.64 °W | Updated 31 minutes ago

Clear
Clear
29.0 °F
Feels Like 23 °F
N
6.0
Wind Variable Wind from South

Today
High -- | Low -- °F
--% Chance of Precip.
Yesterday
High -- | Low -- °F
Precip. -- in
7:49 AM 5:53 PM
First Quarter, 58% visible
Pressure 30.15 in
Visibility 10.0 miles
Clouds Clear
Windchill 23 °F
Dew Point 9.0 °F
Humidity 42%
Rainfall -999.00 in
Snow Depth Not available.
UV 0 out of 12
Pollen .10 out of 12
Air Quality Not available.
Flu Activity Not available.
METAR KCVG 272152Z 35009KT 10SM CLR M01/M10 A3012 RMK AO2 SLP208 T10111100

More Conditions Fewer Conditions

Pressure 30.15 in
Visibility 10.0 miles
Clouds Clear
Windchill 23 °F
Dew Point 9.0 °F
Humidity 42%
Rainfall -999.00 in
Snow Depth Not available.
UV 0 out of 12
Pollen .10 out of 12
Air Quality Not available.
Flu Activity Not available.
METAR KCVG 272152Z 35009KT 10SM CLR M01/M10 A3012 RMK AO2 SLP208 T10111100

More Conditions Fewer Conditions

10-Day Weather Forecast

Almanac

Astronomy

Jan. 27, 2015 Rise Set
Actual Time
Civil Twilight
Nautical Twilight
Astronomical Twilight
Moon
Length of Visible Light
Length of Day
Tomorrow will be .
, % of the Moon is Illuminated

Today's Extremes

State Highs State Lows

Community

WunderPhotos

Upload Photos

1,790,930 photos uploaded!

WunderBlogs® & News

Nearby

Air Quality

  Air Quality AQ Index Pollutant
Not available.

Snow Depth

Station Depth Elevation

Earthquake Activity

City Distance Mag. Time & Date
Minimum magnitude displayed is 2.5.

Coastal Water Temperatures

Place Temperature

Nearby Weather Stations